createdAt,value
2023-02-06T00:00:15.111Z,16.80
2023-02-06T00:01:15.078Z,21.30
2023-02-06T00:02:15.074Z,17.80
2023-02-06T00:03:15.012Z,18.10
2023-02-06T00:04:14.976Z,19.30
2023-02-06T00:05:15.035Z,19.20
2023-02-06T00:06:14.922Z,21.00
2023-02-06T00:07:14.899Z,15.90
2023-02-06T00:08:14.866Z,17.20
2023-02-06T00:09:14.878Z,17.30
2023-02-06T00:10:14.811Z,22.50
2023-02-06T00:11:14.782Z,19.60
2023-02-06T00:12:14.757Z,18.40
2023-02-06T00:13:14.730Z,18.60
2023-02-06T00:14:14.695Z,18.40
2023-02-06T00:15:14.681Z,20.20
2023-02-06T00:16:14.683Z,19.10
2023-02-06T00:17:14.619Z,15.40
2023-02-06T00:18:14.587Z,17.90
2023-02-06T00:19:14.559Z,15.00
2023-02-06T00:20:14.529Z,17.90
2023-02-06T00:21:14.506Z,20.50
2023-02-06T00:22:14.477Z,16.40
2023-02-06T00:23:14.447Z,20.70
2023-02-06T00:24:14.426Z,21.80
2023-02-06T00:25:14.401Z,17.50
2023-02-06T00:26:14.365Z,17.10
2023-02-06T00:27:14.336Z,17.10
2023-02-06T00:28:14.390Z,16.00
2023-02-06T00:29:14.281Z,17.60
2023-02-06T00:30:14.252Z,20.00
2023-02-06T00:31:14.294Z,18.40
2023-02-06T00:32:14.283Z,18.40
2023-02-06T00:33:14.166Z,15.70
2023-02-06T00:34:14.143Z,19.70
2023-02-06T00:35:14.117Z,23.40
2023-02-06T00:36:14.089Z,20.30
2023-02-06T00:37:14.058Z,22.30
2023-02-06T00:38:14.027Z,17.00
2023-02-06T00:39:14.007Z,18.00
2023-02-06T00:40:13.973Z,18.00
2023-02-06T00:41:13.946Z,20.50
2023-02-06T00:42:13.918Z,20.40
2023-02-06T00:43:13.888Z,19.30
2023-02-06T00:44:13.863Z,25.10
2023-02-06T00:45:13.839Z,21.70
2023-02-06T00:46:13.827Z,17.90
2023-02-06T00:47:13.781Z,25.10
2023-02-06T00:48:13.772Z,20.30
2023-02-06T00:49:13.724Z,25.50
2023-02-06T00:50:13.694Z,21.60
2023-02-06T00:51:13.673Z,18.70
2023-02-06T00:52:13.637Z,21.10
2023-02-06T00:53:13.614Z,25.20
2023-02-06T00:54:13.591Z,24.50
2023-02-06T00:55:13.558Z,23.40
2023-02-06T00:56:13.527Z,24.50
2023-02-06T00:57:13.500Z,21.20
2023-02-06T00:58:13.472Z,19.60
2023-02-06T00:59:13.444Z,21.30
2023-02-06T01:00:13.415Z,20.60
2023-02-06T01:01:13.393Z,16.00
2023-02-06T01:02:13.358Z,19.40
2023-02-06T01:03:13.331Z,22.10
2023-02-06T01:04:13.326Z,20.60
2023-02-06T01:05:13.274Z,17.10
2023-02-06T01:06:13.252Z,20.80
2023-02-06T01:07:13.220Z,17.90
2023-02-06T01:08:13.198Z,22.00
2023-02-06T01:09:13.162Z,22.60
2023-02-06T01:10:13.127Z,20.10
2023-02-06T01:11:13.111Z,23.10
2023-02-06T01:12:13.071Z,20.00
2023-02-06T01:13:13.055Z,14.60
2023-02-06T01:14:13.024Z,17.80
2023-02-06T01:15:12.988Z,18.50
2023-02-06T01:16:13.025Z,16.40
2023-02-06T01:17:12.933Z,17.90
2023-02-06T01:18:12.898Z,20.20
2023-02-06T01:19:12.878Z,20.50
2023-02-06T01:20:12.871Z,18.00
2023-02-06T01:21:12.814Z,19.00
2023-02-06T01:22:12.799Z,19.40
2023-02-06T01:23:12.768Z,16.10
2023-02-06T01:24:12.743Z,18.50
2023-02-06T01:25:12.703Z,15.10
2023-02-06T01:26:12.678Z,17.90
2023-02-06T01:27:12.646Z,16.60
2023-02-06T01:28:12.762Z,12.50
2023-02-06T01:29:12.588Z,16.00
2023-02-06T01:30:12.592Z,16.40
2023-02-06T01:31:12.594Z,15.00
2023-02-06T01:32:12.507Z,13.80
2023-02-06T01:33:12.477Z,17.00
2023-02-06T01:34:12.461Z,17.50
2023-02-06T01:35:12.433Z,17.70
2023-02-06T01:36:12.437Z,15.80
2023-02-06T01:37:12.365Z,14.00
2023-02-06T01:38:12.344Z,15.60
2023-02-06T01:39:12.310Z,13.70
2023-02-06T01:40:12.288Z,14.80
2023-02-06T01:41:12.250Z,13.40
2023-02-06T01:42:12.226Z,16.90
2023-02-06T01:43:12.194Z,16.50
2023-02-06T01:44:12.172Z,19.00
2023-02-06T01:45:12.138Z,18.20
2023-02-06T01:46:12.254Z,19.20
2023-02-06T01:47:12.084Z,18.10
2023-02-06T01:48:12.061Z,18.50
2023-02-06T01:49:12.028Z,17.60
2023-02-06T01:50:12.000Z,19.40
2023-02-06T01:51:11.972Z,17.50
2023-02-06T01:52:11.968Z,17.80
2023-02-06T01:53:11.910Z,17.50
2023-02-06T01:54:11.890Z,18.60
2023-02-06T01:55:11.855Z,17.60
2023-02-06T01:56:11.826Z,17.80
2023-02-06T01:57:11.807Z,17.10
2023-02-06T01:58:11.773Z,17.60
2023-02-06T01:59:11.743Z,17.60
2023-02-06T02:00:11.721Z,23.20
2023-02-06T02:01:11.685Z,18.40
2023-02-06T02:02:11.701Z,16.00
2023-02-06T02:03:11.627Z,23.50
2023-02-06T02:04:11.601Z,19.00
2023-02-06T02:05:11.582Z,16.70
2023-02-06T02:06:11.547Z,12.60
2023-02-06T02:07:11.514Z,14.00
2023-02-06T02:08:11.509Z,10.50
2023-02-06T02:09:12.770Z,8.70
2023-02-06T02:10:11.434Z,10.20
2023-02-06T02:11:11.411Z,9.60
2023-02-06T02:12:11.381Z,9.30
2023-02-06T02:13:11.353Z,10.30
2023-02-06T02:14:11.323Z,11.50
2023-02-06T02:15:11.293Z,14.30
2023-02-06T02:16:11.291Z,14.10
2023-02-06T02:17:11.236Z,13.50
2023-02-06T02:18:11.212Z,14.70
2023-02-06T02:19:11.179Z,13.20
2023-02-06T02:20:11.157Z,11.90
2023-02-06T02:21:11.127Z,12.00
2023-02-06T02:22:11.100Z,9.40
2023-02-06T02:23:11.078Z,9.40
2023-02-06T02:24:11.070Z,6.60
2023-02-06T02:25:11.016Z,7.80
2023-02-06T02:26:10.985Z,7.60
2023-02-06T02:27:10.962Z,14.40
2023-02-06T02:28:10.969Z,14.90
2023-02-06T02:29:10.899Z,12.40
2023-02-06T02:30:10.867Z,10.30
2023-02-06T02:31:10.867Z,10.40
2023-02-06T02:32:10.817Z,9.40
2023-02-06T02:33:10.785Z,9.40
2023-02-06T02:34:10.765Z,12.10
2023-02-06T02:35:10.728Z,11.80
2023-02-06T02:36:10.703Z,11.20
2023-02-06T02:37:10.672Z,9.60
2023-02-06T02:38:10.659Z,9.70
2023-02-06T02:39:10.633Z,11.60
2023-02-06T02:40:10.748Z,8.10
2023-02-06T02:41:10.562Z,11.50
2023-02-06T02:42:10.533Z,15.80
2023-02-06T02:43:10.498Z,12.60
2023-02-06T02:44:10.488Z,13.90
2023-02-06T02:45:10.443Z,14.70
2023-02-06T02:46:10.450Z,14.00
2023-02-06T02:47:10.387Z,13.20
2023-02-06T02:48:10.362Z,19.40
2023-02-06T02:49:10.331Z,14.60
2023-02-06T02:50:10.305Z,14.10
2023-02-06T02:51:10.266Z,14.80
2023-02-06T02:52:10.242Z,16.60
2023-02-06T02:53:10.218Z,19.00
2023-02-06T02:54:10.193Z,14.60
2023-02-06T02:55:10.153Z,15.10
2023-02-06T02:56:10.148Z,13.40
2023-02-06T02:57:10.098Z,18.50
2023-02-06T02:58:10.077Z,15.10
2023-02-06T02:59:10.046Z,21.70
2023-02-06T03:00:10.022Z,16.30
2023-02-06T03:01:09.994Z,13.00
2023-02-06T03:02:10.002Z,13.30
2023-02-06T03:03:09.926Z,17.20
2023-02-06T03:04:09.903Z,18.70
2023-02-06T03:05:09.869Z,15.40
2023-02-06T03:06:09.843Z,14.00
2023-02-06T03:07:09.813Z,16.00
2023-02-06T03:08:09.786Z,14.80
2023-02-06T03:09:09.757Z,20.50
2023-02-06T03:10:09.728Z,18.50
2023-02-06T03:11:09.698Z,17.80
2023-02-06T03:12:09.697Z,16.80
2023-02-06T03:13:09.640Z,15.20
2023-02-06T03:14:09.613Z,17.90
2023-02-06T03:15:09.587Z,16.00
2023-02-06T03:16:09.581Z,19.90
2023-02-06T03:17:09.525Z,23.50
2023-02-06T03:18:09.504Z,24.10
2023-02-06T03:19:09.469Z,26.90
2023-02-06T03:20:09.445Z,19.40
2023-02-06T03:21:09.410Z,20.20
2023-02-06T03:22:09.390Z,19.40
2023-02-06T03:23:09.354Z,20.10
2023-02-06T03:24:09.333Z,24.20
2023-02-06T03:25:09.300Z,19.10
2023-02-06T03:26:09.278Z,27.00
2023-02-06T03:27:09.242Z,18.10
2023-02-06T03:28:09.278Z,19.20
2023-02-06T03:29:09.184Z,20.00
2023-02-06T03:30:09.165Z,21.00
2023-02-06T03:31:09.129Z,18.10
2023-02-06T03:32:09.104Z,19.00
2023-02-06T03:33:09.076Z,23.80
2023-02-06T03:34:09.043Z,21.40
2023-02-06T03:35:09.017Z,25.70
2023-02-06T03:36:08.986Z,17.90
2023-02-06T03:37:08.956Z,21.50
2023-02-06T03:38:08.932Z,23.70
2023-02-06T03:39:08.905Z,22.70
2023-02-06T03:40:08.891Z,19.10
2023-02-06T03:41:08.848Z,20.20
2023-02-06T03:42:08.819Z,23.20
2023-02-06T03:43:08.786Z,22.70
2023-02-06T03:44:08.788Z,22.60
2023-02-06T03:45:08.862Z,23.50
2023-02-06T03:46:08.769Z,21.90
2023-02-06T03:47:08.672Z,22.20
2023-02-06T03:48:08.645Z,19.60
2023-02-06T03:49:08.616Z,22.00
2023-02-06T03:50:08.603Z,17.40
2023-02-06T03:51:08.559Z,23.40
2023-02-06T03:52:08.543Z,18.20
2023-02-06T03:53:08.500Z,21.90
2023-02-06T03:54:08.479Z,23.40
2023-02-06T03:55:08.442Z,19.10
2023-02-06T03:56:08.426Z,23.40
2023-02-06T03:57:08.397Z,20.00
2023-02-06T03:58:08.475Z,21.20
2023-02-06T03:59:08.333Z,23.90
2023-02-06T04:00:08.469Z,25.10
2023-02-06T04:01:08.302Z,22.20
2023-02-06T04:02:08.287Z,20.40
2023-02-06T04:03:08.221Z,23.90
2023-02-06T04:04:08.209Z,22.30
2023-02-06T04:05:08.163Z,25.30
2023-02-06T04:06:08.136Z,20.50
2023-02-06T04:07:08.103Z,24.80
2023-02-06T04:08:08.079Z,20.10
2023-02-06T04:09:08.050Z,23.20
2023-02-06T04:10:08.033Z,26.30
2023-02-06T04:11:07.996Z,20.70
2023-02-06T04:12:07.971Z,18.20
2023-02-06T04:13:07.934Z,22.60
2023-02-06T04:14:07.919Z,20.90
2023-02-06T04:15:07.882Z,21.20
2023-02-06T04:16:07.874Z,23.60
2023-02-06T04:17:07.827Z,27.30
2023-02-06T04:18:07.809Z,16.30
2023-02-06T04:19:07.766Z,22.00
2023-02-06T04:20:07.738Z,24.50
2023-02-06T04:21:07.729Z,20.30
2023-02-06T04:22:07.679Z,24.30
2023-02-06T04:23:07.681Z,21.30
2023-02-06T04:24:07.634Z,24.00
2023-02-06T04:25:07.598Z,24.40
2023-02-06T04:26:07.577Z,20.10
2023-02-06T04:27:07.548Z,22.90
2023-02-06T04:28:07.669Z,22.30
2023-02-06T04:29:07.479Z,25.50
2023-02-06T04:30:07.456Z,21.20
2023-02-06T04:31:07.531Z,28.60
2023-02-06T04:32:07.438Z,25.00
2023-02-06T04:33:07.365Z,20.30
2023-02-06T04:34:07.346Z,22.90
2023-02-06T04:35:07.306Z,23.60
2023-02-06T04:36:07.281Z,19.80
2023-02-06T04:37:07.250Z,18.90
2023-02-06T04:38:07.233Z,18.70
2023-02-06T04:39:07.199Z,18.90
2023-02-06T04:40:07.166Z,21.60
2023-02-06T04:41:07.142Z,27.10
2023-02-06T04:42:07.115Z,20.60
2023-02-06T04:43:07.080Z,27.30
2023-02-06T04:44:07.054Z,21.50
2023-02-06T04:45:07.022Z,18.40
2023-02-06T04:46:07.093Z,21.40
2023-02-06T04:47:06.963Z,23.60
2023-02-06T04:48:06.964Z,23.80
2023-02-06T04:49:06.910Z,23.40
2023-02-06T04:50:06.891Z,23.10
2023-02-06T04:51:06.852Z,20.70
2023-02-06T04:52:06.833Z,18.80
2023-02-06T04:53:06.793Z,17.30
2023-02-06T04:54:06.770Z,23.40
2023-02-06T04:55:06.737Z,26.40
2023-02-06T04:56:06.711Z,17.50
2023-02-06T04:57:06.684Z,20.20
2023-02-06T04:58:06.652Z,22.40
2023-02-06T04:59:06.619Z,19.50
2023-02-06T05:00:06.601Z,22.30
2023-02-06T05:01:06.562Z,26.80
2023-02-06T05:02:06.544Z,20.90
2023-02-06T05:03:06.524Z,18.90
2023-02-06T05:04:06.503Z,18.90
2023-02-06T05:05:06.456Z,18.80
2023-02-06T05:06:06.420Z,24.40
2023-02-06T05:07:06.390Z,22.20
2023-02-06T05:08:06.361Z,23.20
2023-02-06T05:09:06.330Z,20.80
2023-02-06T05:10:06.311Z,22.60
2023-02-06T05:11:06.273Z,26.60
2023-02-06T05:12:06.249Z,25.70
2023-02-06T05:13:06.216Z,23.90
2023-02-06T05:14:06.198Z,22.20
2023-02-06T05:15:06.188Z,19.80
2023-02-06T05:16:06.219Z,31.30
2023-02-06T05:17:06.100Z,26.20
2023-02-06T05:18:06.081Z,23.70
2023-02-06T05:19:06.042Z,30.80
2023-02-06T05:20:06.039Z,24.00
2023-02-06T05:21:05.988Z,26.30
2023-02-06T05:22:05.963Z,30.10
2023-02-06T05:23:05.929Z,28.00
2023-02-06T05:24:05.905Z,30.00
2023-02-06T05:25:05.880Z,30.10
2023-02-06T05:26:05.844Z,31.70
2023-02-06T05:27:05.816Z,32.60
2023-02-06T05:28:05.890Z,32.70
2023-02-06T05:29:05.751Z,35.60
2023-02-06T05:30:05.725Z,39.30
2023-02-06T05:31:05.832Z,42.70
2023-02-06T05:32:05.670Z,42.40
2023-02-06T05:33:05.637Z,31.70
2023-02-06T05:34:05.614Z,35.40
2023-02-06T05:35:05.586Z,44.80
2023-02-06T05:36:05.574Z,44.00
2023-02-06T05:37:05.536Z,41.10
2023-02-06T05:38:05.496Z,39.40
2023-02-06T05:39:05.468Z,38.80
2023-02-06T05:40:05.440Z,38.00
2023-02-06T05:41:05.419Z,54.50
2023-02-06T05:42:05.392Z,32.10
2023-02-06T05:43:05.363Z,32.30
2023-02-06T05:44:05.326Z,39.00
2023-02-06T05:45:05.306Z,44.40
2023-02-06T05:46:05.318Z,37.90
2023-02-06T05:47:05.243Z,35.50
2023-02-06T05:48:05.211Z,44.50
2023-02-06T05:49:05.193Z,25.70
2023-02-06T05:50:05.160Z,33.30
2023-02-06T05:51:05.127Z,44.10
2023-02-06T05:52:05.121Z,34.80
2023-02-06T05:53:05.074Z,44.80
2023-02-06T05:54:05.044Z,33.30
2023-02-06T05:55:05.014Z,32.50
2023-02-06T05:56:04.986Z,30.50
2023-02-06T05:57:04.960Z,42.50
2023-02-06T05:58:06.336Z,29.20
2023-02-06T05:59:04.901Z,38.40
2023-02-06T06:00:04.873Z,46.20
2023-02-06T06:01:04.853Z,30.50
2023-02-06T06:02:04.811Z,41.50
2023-02-06T06:03:04.793Z,37.80
2023-02-06T06:04:04.796Z,34.70
2023-02-06T06:05:04.820Z,36.90
2023-02-06T06:06:04.697Z,30.20
2023-02-06T06:07:04.673Z,40.10
2023-02-06T06:08:04.669Z,37.80
2023-02-06T06:09:04.617Z,38.70
2023-02-06T06:10:04.584Z,39.00
2023-02-06T06:11:04.566Z,48.90
2023-02-06T06:12:04.530Z,37.10
2023-02-06T06:13:04.508Z,27.20
2023-02-06T06:14:04.476Z,36.80
2023-02-06T06:15:04.451Z,27.10
2023-02-06T06:16:04.462Z,27.40
2023-02-06T06:17:04.389Z,34.60
2023-02-06T06:18:04.364Z,37.30
2023-02-06T06:19:04.343Z,24.20
2023-02-06T06:20:04.299Z,29.00
2023-02-06T06:21:04.277Z,36.90
2023-02-06T06:22:04.246Z,42.70
2023-02-06T06:23:04.224Z,31.30
2023-02-06T06:24:04.217Z,35.50
2023-02-06T06:25:04.165Z,39.30
2023-02-06T06:26:04.148Z,29.10
2023-02-06T06:27:04.104Z,34.00
2023-02-06T06:28:04.132Z,35.70
2023-02-06T06:29:04.054Z,35.60
2023-02-06T06:30:04.028Z,35.50
2023-02-06T06:31:04.135Z,42.20
2023-02-06T06:32:03.962Z,41.80
2023-02-06T06:33:03.939Z,40.10
2023-02-06T06:34:03.900Z,38.10
2023-02-06T06:35:03.876Z,24.40
2023-02-06T06:36:03.846Z,40.30
2023-02-06T06:37:03.820Z,34.00
2023-02-06T06:38:03.789Z,36.90
2023-02-06T06:39:03.763Z,45.70
2023-02-06T06:40:03.751Z,35.30
2023-02-06T06:41:03.697Z,35.50
2023-02-06T06:42:03.670Z,32.30
2023-02-06T06:43:03.651Z,34.60
2023-02-06T06:44:03.611Z,39.50
2023-02-06T06:45:03.588Z,35.60
2023-02-06T06:46:03.608Z,48.50
2023-02-06T06:47:03.525Z,42.30
2023-02-06T06:48:03.494Z,45.50
2023-02-06T06:49:03.476Z,34.70
2023-02-06T06:50:03.441Z,29.00
2023-02-06T06:51:03.411Z,46.10
2023-02-06T06:52:04.498Z,44.40
2023-02-06T06:53:03.355Z,33.80
2023-02-06T06:54:03.349Z,37.20
2023-02-06T06:55:03.295Z,49.60
2023-02-06T06:56:03.327Z,31.00
2023-02-06T06:57:03.241Z,36.70
2023-02-06T06:58:03.214Z,29.60
2023-02-06T06:59:03.182Z,29.50
2023-02-06T07:00:03.154Z,25.50
2023-02-06T07:01:03.171Z,28.40
2023-02-06T07:02:03.101Z,28.20
2023-02-06T07:03:03.157Z,35.10
2023-02-06T07:04:03.039Z,24.90
2023-02-06T07:05:03.066Z,27.40
2023-02-06T07:06:02.978Z,38.00
2023-02-06T07:07:03.021Z,36.70
2023-02-06T07:08:02.921Z,29.90
2023-02-06T07:09:02.896Z,35.00
2023-02-06T07:10:02.879Z,30.60
2023-02-06T07:11:02.836Z,26.80
2023-02-06T07:12:02.870Z,25.90
2023-02-06T07:13:02.787Z,29.40
2023-02-06T07:14:02.757Z,32.10
2023-02-06T07:15:02.727Z,35.90
2023-02-06T07:16:02.786Z,28.70
2023-02-06T07:17:02.686Z,31.00
2023-02-06T07:18:02.639Z,28.10
2023-02-06T07:19:02.612Z,36.80
2023-02-06T07:20:02.581Z,42.90
2023-02-06T07:21:02.562Z,41.40
2023-02-06T07:22:02.531Z,25.70
2023-02-06T07:23:02.510Z,28.40
2023-02-06T07:24:02.471Z,29.00
2023-02-06T07:25:02.437Z,30.10
2023-02-06T07:26:02.458Z,34.90
2023-02-06T07:27:02.387Z,30.80
2023-02-06T07:28:02.532Z,31.20
2023-02-06T07:29:02.326Z,26.40
2023-02-06T07:30:02.294Z,30.00
2023-02-06T07:31:02.343Z,30.10
2023-02-06T07:32:02.238Z,21.00
2023-02-06T07:33:02.213Z,25.20
2023-02-06T07:34:02.210Z,28.20
2023-02-06T07:35:02.169Z,21.70
2023-02-06T07:36:03.817Z,20.70
2023-02-06T07:37:02.098Z,26.90
2023-02-06T07:38:02.073Z,24.60
2023-02-06T07:39:02.053Z,28.20
2023-02-06T07:40:02.009Z,24.40
2023-02-06T07:41:01.989Z,31.40
2023-02-06T07:42:01.952Z,31.50
2023-02-06T07:43:01.927Z,24.30
2023-02-06T07:44:01.981Z,22.90
2023-02-06T07:45:01.881Z,20.60
2023-02-06T07:46:01.952Z,23.10
2023-02-06T07:47:01.824Z,16.70
2023-02-06T07:48:01.783Z,25.40
2023-02-06T07:49:01.764Z,17.40
2023-02-06T07:50:01.744Z,23.10
2023-02-06T07:51:01.703Z,21.80
2023-02-06T07:52:01.681Z,17.20
2023-02-06T07:53:01.649Z,23.20
2023-02-06T07:54:01.617Z,22.30
2023-02-06T07:55:01.589Z,20.50
2023-02-06T07:56:01.555Z,18.90
2023-02-06T07:57:01.539Z,19.70
2023-02-06T07:58:01.538Z,18.90
2023-02-06T07:59:01.537Z,18.00
2023-02-06T08:00:01.490Z,14.80
2023-02-06T08:01:01.429Z,16.00
2023-02-06T08:02:01.388Z,20.50
2023-02-06T08:03:01.372Z,21.40
2023-02-06T08:04:01.337Z,19.80
2023-02-06T08:05:01.306Z,23.90
2023-02-06T08:06:01.279Z,22.40
2023-02-06T08:07:01.264Z,15.90
2023-02-06T08:08:01.214Z,13.40
2023-02-06T08:09:01.206Z,15.90
2023-02-06T08:10:01.176Z,18.00
2023-02-06T08:11:01.136Z,14.90
2023-02-06T08:12:01.128Z,15.10
2023-02-06T08:13:01.080Z,15.30
2023-02-06T08:14:01.050Z,14.90
2023-02-06T08:15:01.021Z,13.50
2023-02-06T08:16:01.090Z,13.00
2023-02-06T08:17:00.964Z,12.30
2023-02-06T08:18:00.934Z,13.20
2023-02-06T08:19:00.918Z,13.80
2023-02-06T08:20:00.881Z,12.70
2023-02-06T08:21:00.850Z,15.10
2023-02-06T08:22:00.821Z,11.90
2023-02-06T08:23:00.799Z,14.40
2023-02-06T08:24:00.797Z,15.40
2023-02-06T08:25:00.747Z,14.50
2023-02-06T08:26:00.738Z,16.40
2023-02-06T08:27:00.681Z,16.80
2023-02-06T08:28:00.768Z,14.40
2023-02-06T08:29:00.629Z,13.70
2023-02-06T08:30:00.600Z,15.80
2023-02-06T08:31:00.762Z,13.70
2023-02-06T08:32:00.573Z,14.20
2023-02-06T08:33:00.524Z,11.90
2023-02-06T08:34:00.522Z,16.50
2023-02-06T08:35:00.466Z,15.30
2023-02-06T08:36:00.426Z,13.40
2023-02-06T08:37:00.408Z,18.90
2023-02-06T08:38:00.368Z,15.40
2023-02-06T08:39:00.351Z,16.40
2023-02-06T08:40:00.317Z,17.60
2023-02-06T08:41:00.298Z,16.00
2023-02-06T08:42:00.260Z,14.50
2023-02-06T08:43:00.237Z,13.00
2023-02-06T08:44:00.190Z,14.00
2023-02-06T08:45:00.187Z,12.00
2023-02-06T08:46:00.267Z,15.30
2023-02-06T08:47:09.693Z,12.70
2023-02-06T08:48:00.127Z,13.80
2023-02-06T08:49:00.073Z,15.10
2023-02-06T08:50:02.197Z,16.00
2023-02-06T08:51:00.002Z,17.40
2023-02-06T08:51:59.979Z,18.80
2023-02-06T08:52:59.956Z,13.10
2023-02-06T08:53:59.929Z,15.40
2023-02-06T08:54:59.894Z,14.90
2023-02-06T08:55:59.864Z,18.20
2023-02-06T08:56:59.841Z,17.00
2023-02-06T08:57:59.805Z,15.80
2023-02-06T08:58:59.787Z,16.40
2023-02-06T08:59:59.758Z,15.70
2023-02-06T09:00:59.726Z,18.50
2023-02-06T09:01:59.690Z,18.00
2023-02-06T09:02:59.662Z,17.90
2023-02-06T09:03:59.689Z,15.70
2023-02-06T09:04:59.609Z,16.00
2023-02-06T09:06:05.562Z,17.60
2023-02-06T09:06:59.557Z,17.00
2023-02-06T09:07:59.519Z,17.00
2023-02-06T09:08:59.520Z,18.30
2023-02-06T09:09:59.468Z,15.70
2023-02-06T09:10:59.440Z,14.10
2023-02-06T09:11:59.414Z,15.40
2023-02-06T09:12:59.395Z,16.00
2023-02-06T09:13:59.353Z,15.80
2023-02-06T09:14:59.332Z,16.50
2023-02-06T09:15:59.345Z,18.20
2023-02-06T09:16:59.275Z,17.30
2023-02-06T09:17:59.241Z,17.40
2023-02-06T09:18:59.215Z,19.10
2023-02-06T09:19:59.267Z,16.90
2023-02-06T09:20:59.169Z,18.80
2023-02-06T09:21:59.129Z,20.90
2023-02-06T09:22:59.092Z,19.90
2023-02-06T09:23:59.084Z,17.80
2023-02-06T09:24:59.043Z,20.60
2023-02-06T09:25:59.007Z,25.20
2023-02-06T09:27:00.711Z,16.90
2023-02-06T09:27:58.970Z,18.20
2023-02-06T09:28:58.930Z,18.10
2023-02-06T09:29:58.910Z,15.50
2023-02-06T09:30:58.948Z,22.00
2023-02-06T09:31:58.851Z,21.40
2023-02-06T09:32:58.819Z,20.00
2023-02-06T09:33:58.786Z,20.70
2023-02-06T09:34:58.759Z,21.50
2023-02-06T09:35:58.748Z,21.20
2023-02-06T09:36:58.720Z,20.60
2023-02-06T09:37:58.681Z,19.30
2023-02-06T09:38:58.648Z,21.50
2023-02-06T09:39:58.616Z,21.10
2023-02-06T09:40:58.596Z,23.70
2023-02-06T09:41:58.557Z,23.90
2023-02-06T09:42:58.529Z,23.80
2023-02-06T09:43:58.499Z,24.60
2023-02-06T09:44:58.477Z,23.30
2023-02-06T09:45:58.451Z,21.60
2023-02-06T09:46:58.415Z,21.60
2023-02-06T09:47:58.414Z,23.90
2023-02-06T09:48:58.380Z,21.80
2023-02-06T09:49:58.332Z,20.90
2023-02-06T09:50:58.312Z,20.40
2023-02-06T09:51:58.377Z,26.20
2023-02-06T09:52:58.251Z,22.90
2023-02-06T09:53:58.228Z,22.90
2023-02-06T09:54:58.198Z,21.80
2023-02-06T09:55:58.167Z,24.40
2023-02-06T09:56:58.141Z,23.00
2023-02-06T09:57:58.119Z,19.70
2023-02-06T09:58:58.088Z,23.30
2023-02-06T09:59:58.056Z,21.40
2023-02-06T10:00:58.028Z,19.20
2023-02-06T10:01:58.055Z,27.30
2023-02-06T10:02:57.983Z,17.90
2023-02-06T10:03:58.015Z,19.10
2023-02-06T10:04:57.912Z,19.90
2023-02-06T10:05:57.894Z,22.70
2023-02-06T10:06:57.859Z,26.00
2023-02-06T10:07:57.932Z,28.30
2023-02-06T10:08:57.809Z,20.20
2023-02-06T10:09:57.777Z,21.60
2023-02-06T10:10:57.772Z,24.70
2023-02-06T10:11:57.735Z,16.70
2023-02-06T10:12:57.696Z,18.40
2023-02-06T10:13:57.670Z,22.30
2023-02-06T10:14:57.643Z,18.90
2023-02-06T10:15:57.633Z,16.10
2023-02-06T10:16:57.591Z,20.90
2023-02-06T10:17:57.556Z,21.20
2023-02-06T10:18:57.524Z,20.20
2023-02-06T10:19:57.497Z,23.10
2023-02-06T10:20:57.468Z,23.30
2023-02-06T10:21:57.447Z,21.60
2023-02-06T10:22:57.426Z,26.80
2023-02-06T10:23:57.443Z,20.30
2023-02-06T10:24:57.356Z,25.60
2023-02-06T10:25:57.340Z,24.70
2023-02-06T10:26:57.300Z,25.40
2023-02-06T10:27:57.302Z,25.30
2023-02-06T10:28:57.250Z,25.40
2023-02-06T10:29:57.222Z,26.00
2023-02-06T10:30:57.280Z,25.90
2023-02-06T10:31:57.217Z,25.10
2023-02-06T10:32:57.139Z,25.10
2023-02-06T10:33:57.112Z,19.90
2023-02-06T10:34:57.078Z,23.50
2023-02-06T10:35:57.054Z,23.40
2023-02-06T10:36:57.075Z,27.60
2023-02-06T10:37:57.004Z,23.90
2023-02-06T10:38:56.976Z,28.10
2023-02-06T10:39:56.966Z,25.30
2023-02-06T10:40:56.914Z,30.00
2023-02-06T10:41:56.885Z,31.90
2023-02-06T10:42:56.857Z,32.20
2023-02-06T10:43:56.872Z,34.00
2023-02-06T10:45:03.612Z,29.00
2023-02-06T10:45:56.792Z,28.80
2023-02-06T10:46:56.777Z,35.10
2023-02-06T10:47:56.731Z,31.20
2023-02-06T10:48:56.693Z,33.50
2023-02-06T10:49:56.668Z,27.50
2023-02-06T10:50:56.637Z,31.40
2023-02-06T10:51:56.619Z,30.00
2023-02-06T10:52:56.580Z,27.60
2023-02-06T10:53:56.559Z,33.30
2023-02-06T10:54:56.524Z,29.40
2023-02-06T10:55:56.523Z,32.70
2023-02-06T10:56:56.495Z,27.90
2023-02-06T10:57:56.446Z,28.00
2023-02-06T10:58:56.419Z,34.70
2023-02-06T10:59:56.396Z,32.20
2023-02-06T11:00:56.468Z,32.10
2023-02-06T11:01:56.393Z,31.40
2023-02-06T11:03:06.529Z,29.30
2023-02-06T11:03:56.275Z,32.60
2023-02-06T11:04:56.270Z,32.00
2023-02-06T11:05:56.222Z,29.20
2023-02-06T11:06:56.188Z,34.70
2023-02-06T11:07:56.172Z,30.00
2023-02-06T11:08:56.137Z,31.00
2023-02-06T11:09:56.112Z,29.30
2023-02-06T11:10:56.085Z,30.20
2023-02-06T11:11:56.179Z,24.20
2023-02-06T11:12:56.020Z,25.90
2023-02-06T11:13:56.004Z,34.30
2023-02-06T11:14:55.979Z,31.70
2023-02-06T11:15:55.944Z,31.50
2023-02-06T11:16:55.905Z,26.60
2023-02-06T11:17:55.886Z,38.00
2023-02-06T11:18:55.854Z,29.60
2023-02-06T11:19:55.828Z,35.90
2023-02-06T11:20:55.943Z,32.20
2023-02-06T11:21:55.775Z,29.40
2023-02-06T11:22:55.743Z,31.90
2023-02-06T11:23:55.717Z,35.30
2023-02-06T11:24:55.737Z,29.70
2023-02-06T11:25:55.680Z,28.80
2023-02-06T11:26:55.631Z,25.50
2023-02-06T11:27:55.716Z,30.00
2023-02-06T11:28:55.584Z,30.50
2023-02-06T11:29:55.569Z,29.20
2023-02-06T11:30:55.546Z,27.90
2023-02-06T11:31:55.599Z,31.40
2023-02-06T11:33:04.126Z,28.20
2023-02-06T11:33:55.449Z,25.20
2023-02-06T11:34:55.412Z,27.10
2023-02-06T11:35:55.408Z,36.70
2023-02-06T11:36:55.359Z,30.90
2023-02-06T11:37:55.335Z,30.80
2023-02-06T11:38:55.304Z,29.00
2023-02-06T11:39:55.273Z,27.60
2023-02-06T11:40:55.248Z,34.70
2023-02-06T11:41:55.217Z,32.40
2023-02-06T11:42:55.189Z,31.10
2023-02-06T11:43:55.184Z,28.30
2023-02-06T11:44:55.133Z,26.10
2023-02-06T11:45:55.137Z,30.50
2023-02-06T11:46:55.076Z,34.30
2023-02-06T11:47:55.056Z,25.10
2023-02-06T11:48:55.022Z,29.50
2023-02-06T11:49:54.994Z,32.90
2023-02-06T11:50:54.968Z,30.60
2023-02-06T11:51:54.946Z,30.00
2023-02-06T11:52:54.915Z,35.40
2023-02-06T11:53:54.884Z,33.10
2023-02-06T11:54:54.858Z,28.10
2023-02-06T11:55:54.830Z,32.00
2023-02-06T11:56:54.799Z,31.90
2023-02-06T11:57:54.776Z,29.40
2023-02-06T11:58:54.739Z,28.60
2023-02-06T11:59:54.749Z,33.50
2023-02-06T12:00:54.706Z,30.60
2023-02-06T12:01:54.680Z,35.80
2023-02-06T12:02:54.633Z,37.30
2023-02-06T12:03:54.620Z,33.20
2023-02-06T12:04:54.581Z,31.30
2023-02-06T12:05:54.572Z,30.10
2023-02-06T12:06:54.527Z,33.40
2023-02-06T12:07:54.503Z,33.30
2023-02-06T12:08:54.485Z,28.30
2023-02-06T12:09:54.448Z,29.70
2023-02-06T12:10:54.418Z,34.50
2023-02-06T12:11:54.397Z,32.90
2023-02-06T12:12:54.359Z,34.50
2023-02-06T12:13:54.339Z,29.60
2023-02-06T12:14:54.327Z,35.00
2023-02-06T12:15:54.946Z,27.50
2023-02-06T12:16:54.285Z,30.90
2023-02-06T12:17:54.227Z,33.40
2023-02-06T12:18:54.193Z,31.10
2023-02-06T12:19:54.171Z,33.00
2023-02-06T12:20:54.143Z,33.90
2023-02-06T12:21:54.211Z,29.10
2023-02-06T12:22:54.086Z,36.80
2023-02-06T12:23:54.063Z,36.00
2023-02-06T12:24:54.032Z,34.50
2023-02-06T12:25:54.013Z,33.70
2023-02-06T12:26:53.978Z,31.80
2023-02-06T12:27:53.987Z,37.00
2023-02-06T12:28:53.935Z,32.40
2023-02-06T12:29:53.895Z,34.00
2023-02-06T12:30:53.930Z,31.60
2023-02-06T12:31:54.136Z,40.80
2023-02-06T12:32:53.812Z,31.10
2023-02-06T12:33:55.212Z,32.70
2023-02-06T12:34:53.895Z,32.50
2023-02-06T12:35:53.727Z,34.40
2023-02-06T12:36:53.700Z,37.40
2023-02-06T12:37:53.672Z,35.90
2023-02-06T12:38:53.646Z,38.60
2023-02-06T12:39:53.625Z,42.00
2023-02-06T12:40:53.591Z,36.90
2023-02-06T12:41:53.560Z,44.10
2023-02-06T12:42:53.533Z,37.00
2023-02-06T12:43:53.512Z,34.30
2023-02-06T12:44:53.492Z,39.50
2023-02-06T12:45:54.122Z,28.60
2023-02-06T12:46:53.435Z,33.90
2023-02-06T12:47:53.431Z,40.70
2023-02-06T12:48:53.366Z,35.90
2023-02-06T12:49:53.348Z,37.20
2023-02-06T12:50:53.318Z,29.50
2023-02-06T12:51:53.293Z,38.60
2023-02-06T12:52:53.261Z,28.60